ZIH weather

Ixtapa Zihuatanejo International Airport
Ixtapa, Guerrero, Mexico

Public forecast

Using degrees Celsius for public forecast. Weather courtesy of forecast.io.

METAR (pilot weather report)

Retrieved 2019/04/22 19:40 UTC (48 minutes ago):

MMZH 221940Z 20010KT 6SM SKC 30/22 A2992 RMK HZY

TAF (pilot weather forecast)

Retrieved 2019/04/22 18:18 UTC (2 hours ago):

TAF MMZH 221612Z 2218/2318 20010KT P6SM SKC FM222100 26015KT P6SM SKC FM230300 34005KT P6SM SCT250